sensor_id;sensor_type;location;lat;lon;timestamp;P1;durP1;ratioP1;P2;durP2;ratioP2
44925;SDS011;30662;51.210;7.656;2023-06-24T00:01:29;6.20;;;4.57;;
44925;SDS011;30662;51.210;7.656;2023-06-24T00:03:57;7.38;;;4.45;;
44925;SDS011;30662;51.210;7.656;2023-06-24T00:06:23;6.22;;;4.55;;
44925;SDS011;30662;51.210;7.656;2023-06-24T00:08:51;7.20;;;5.18;;
44925;SDS011;30662;51.210;7.656;2023-06-24T00:11:19;5.00;;;4.32;;
44925;SDS011;30662;51.210;7.656;2023-06-24T00:13:45;6.88;;;4.68;;
44925;SDS011;30662;51.210;7.656;2023-06-24T00:16:11;6.55;;;4.72;;
44925;SDS011;30662;51.210;7.656;2023-06-24T00:18:37;7.38;;;5.03;;
44925;SDS011;30662;51.210;7.656;2023-06-24T00:21:06;7.38;;;4.68;;
44925;SDS011;30662;51.210;7.656;2023-06-24T00:23:32;7.85;;;5.20;;
44925;SDS011;30662;51.210;7.656;2023-06-24T00:26:01;6.55;;;4.88;;
44925;SDS011;30662;51.210;7.656;2023-06-24T00:28:27;8.73;;;5.63;;
44925;SDS011;30662;51.210;7.656;2023-06-24T00:30:53;6.40;;;5.38;;
44925;SDS011;30662;51.210;7.656;2023-06-24T00:33:20;7.20;;;5.05;;
44925;SDS011;30662;51.210;7.656;2023-06-24T00:35:46;8.38;;;5.22;;
44925;SDS011;30662;51.210;7.656;2023-06-24T00:38:12;5.85;;;5.05;;
44925;SDS011;30662;51.210;7.656;2023-06-24T00:40:38;7.90;;;5.45;;
44925;SDS011;30662;51.210;7.656;2023-06-24T00:43:07;9.75;;;5.50;;
44925;SDS011;30662;51.210;7.656;2023-06-24T00:45:34;5.30;;;4.43;;
44925;SDS011;30662;51.210;7.656;2023-06-24T00:48:00;6.38;;;4.93;;
44925;SDS011;30662;51.210;7.656;2023-06-24T00:50:26;6.97;;;5.32;;
44925;SDS011;30662;51.210;7.656;2023-06-24T00:52:53;6.75;;;5.22;;
44925;SDS011;30662;51.210;7.656;2023-06-24T00:55:18;6.68;;;6.03;;
44925;SDS011;30662;51.210;7.656;2023-06-24T00:57:49;5.47;;;4.60;;
44925;SDS011;30662;51.210;7.656;2023-06-24T01:00:17;6.15;;;5.32;;
44925;SDS011;30662;51.210;7.656;2023-06-24T01:02:49;7.25;;;5.68;;
44925;SDS011;30662;51.210;7.656;2023-06-24T01:05:15;7.03;;;5.57;;
44925;SDS011;30662;51.210;7.656;2023-06-24T01:07:41;8.60;;;6.00;;
44925;SDS011;30662;51.210;7.656;2023-06-24T01:10:08;8.25;;;6.00;;
44925;SDS011;30662;51.210;7.656;2023-06-24T01:12:36;8.35;;;5.82;;
44925;SDS011;30662;51.210;7.656;2023-06-24T01:15:10;7.95;;;5.85;;
44925;SDS011;30662;51.210;7.656;2023-06-24T01:17:44;6.78;;;5.25;;
44925;SDS011;30662;51.210;7.656;2023-06-24T01:20:25;7.45;;;5.47;;
44925;SDS011;30662;51.210;7.656;2023-06-24T01:23:06;5.97;;;5.38;;
44925;SDS011;30662;51.210;7.656;2023-06-24T01:25:48;6.15;;;5.55;;
44925;SDS011;30662;51.210;7.656;2023-06-24T01:32:33;8.68;;;5.40;;
44925;SDS011;30662;51.210;7.656;2023-06-24T01:35:15;6.40;;;5.03;;
44925;SDS011;30662;51.210;7.656;2023-06-24T01:37:52;6.28;;;5.68;;
44925;SDS011;30662;51.210;7.656;2023-06-24T01:40:25;9.35;;;5.72;;
44925;SDS011;30662;51.210;7.656;2023-06-24T01:42:52;9.93;;;6.03;;
44925;SDS011;30662;51.210;7.656;2023-06-24T01:45:28;9.63;;;6.68;;
44925;SDS011;30662;51.210;7.656;2023-06-24T01:51:00;6.22;;;5.65;;
44925;SDS011;30662;51.210;7.656;2023-06-24T01:53:29;8.20;;;6.60;;
44925;SDS011;30662;51.210;7.656;2023-06-24T01:55:59;7.32;;;6.55;;
44925;SDS011;30662;51.210;7.656;2023-06-24T01:58:27;8.90;;;5.88;;
44925;SDS011;30662;51.210;7.656;2023-06-24T02:00:54;7.88;;;6.75;;
44925;SDS011;30662;51.210;7.656;2023-06-24T02:03:22;7.65;;;6.30;;
44925;SDS011;30662;51.210;7.656;2023-06-24T02:05:49;8.52;;;6.20;;
44925;SDS011;30662;51.210;7.656;2023-06-24T02:08:18;6.85;;;6.22;;
44925;SDS011;30662;51.210;7.656;2023-06-24T02:10:46;10.88;;;7.18;;
44925;SDS011;30662;51.210;7.656;2023-06-24T02:13:14;8.98;;;6.93;;
44925;SDS011;30662;51.210;7.656;2023-06-24T02:15:42;8.20;;;6.30;;
44925;SDS011;30662;51.210;7.656;2023-06-24T02:18:09;8.10;;;6.53;;
44925;SDS011;30662;51.210;7.656;2023-06-24T02:20:36;8.90;;;6.72;;
44925;SDS011;30662;51.210;7.656;2023-06-24T02:23:04;7.47;;;6.22;;
44925;SDS011;30662;51.210;7.656;2023-06-24T02:25:33;7.85;;;7.05;;
44925;SDS011;30662;51.210;7.656;2023-06-24T02:28:00;8.77;;;7.28;;
44925;SDS011;30662;51.210;7.656;2023-06-24T02:30:26;9.30;;;6.45;;
44925;SDS011;30662;51.210;7.656;2023-06-24T02:32:53;7.18;;;6.47;;
44925;SDS011;30662;51.210;7.656;2023-06-24T02:35:20;8.88;;;6.70;;
44925;SDS011;30662;51.210;7.656;2023-06-24T02:37:45;7.32;;;6.30;;
44925;SDS011;30662;51.210;7.656;2023-06-24T02:40:11;7.93;;;7.10;;
44925;SDS011;30662;51.210;7.656;2023-06-24T02:42:38;8.30;;;7.38;;
44925;SDS011;30662;51.210;7.656;2023-06-24T02:45:04;9.63;;;7.10;;
44925;SDS011;30662;51.210;7.656;2023-06-24T02:47:31;8.70;;;7.18;;
44925;SDS011;30662;51.210;7.656;2023-06-24T02:49:59;9.05;;;6.50;;
44925;SDS011;30662;51.210;7.656;2023-06-24T02:52:25;8.45;;;6.10;;
44925;SDS011;30662;51.210;7.656;2023-06-24T02:54:57;9.05;;;6.55;;
44925;SDS011;30662;51.210;7.656;2023-06-24T02:57:24;9.23;;;6.68;;
44925;SDS011;30662;51.210;7.656;2023-06-24T02:59:51;9.90;;;6.90;;
44925;SDS011;30662;51.210;7.656;2023-06-24T03:02:17;8.35;;;6.00;;
44925;SDS011;30662;51.210;7.656;2023-06-24T03:04:44;7.70;;;6.70;;
44925;SDS011;30662;51.210;7.656;2023-06-24T03:07:10;7.18;;;6.47;;
44925;SDS011;30662;51.210;7.656;2023-06-24T03:09:37;7.85;;;6.60;;
44925;SDS011;30662;51.210;7.656;2023-06-24T03:12:03;9.05;;;6.97;;
44925;SDS011;30662;51.210;7.656;2023-06-24T03:14:31;7.00;;;6.30;;
44925;SDS011;30662;51.210;7.656;2023-06-24T03:16:57;7.57;;;6.68;;
44925;SDS011;30662;51.210;7.656;2023-06-24T03:19:23;9.45;;;7.05;;
44925;SDS011;30662;51.210;7.656;2023-06-24T03:21:48;9.27;;;6.88;;
44925;SDS011;30662;51.210;7.656;2023-06-24T03:24:14;9.90;;;6.80;;
44925;SDS011;30662;51.210;7.656;2023-06-24T03:26:48;9.52;;;6.85;;
44925;SDS011;30662;51.210;7.656;2023-06-24T03:29:21;9.20;;;7.20;;
44925;SDS011;30662;51.210;7.656;2023-06-24T03:31:47;9.00;;;6.60;;
44925;SDS011;30662;51.210;7.656;2023-06-24T03:34:13;7.63;;;6.90;;
44925;SDS011;30662;51.210;7.656;2023-06-24T03:36:39;8.73;;;7.05;;
44925;SDS011;30662;51.210;7.656;2023-06-24T03:39:05;7.30;;;6.60;;
44925;SDS011;30662;51.210;7.656;2023-06-24T03:41:31;7.55;;;6.75;;
44925;SDS011;30662;51.210;7.656;2023-06-24T03:43:57;7.25;;;6.55;;
44925;SDS011;30662;51.210;7.656;2023-06-24T03:46:22;8.48;;;6.25;;
44925;SDS011;30662;51.210;7.656;2023-06-24T03:48:52;9.48;;;6.32;;
44925;SDS011;30662;51.210;7.656;2023-06-24T03:51:18;11.18;;;7.50;;
44925;SDS011;30662;51.210;7.656;2023-06-24T03:53:44;9.90;;;6.10;;
44925;SDS011;30662;51.210;7.656;2023-06-24T03:56:09;9.25;;;6.30;;
44925;SDS011;30662;51.210;7.656;2023-06-24T03:58:35;9.10;;;6.65;;
44925;SDS011;30662;51.210;7.656;2023-06-24T04:01:01;6.35;;;5.75;;
44925;SDS011;30662;51.210;7.656;2023-06-24T04:03:28;8.50;;;6.22;;
44925;SDS011;30662;51.210;7.656;2023-06-24T04:05:57;7.13;;;5.60;;
44925;SDS011;30662;51.210;7.656;2023-06-24T04:08:23;7.20;;;6.30;;
44925;SDS011;30662;51.210;7.656;2023-06-24T04:10:55;8.35;;;6.80;;
44925;SDS011;30662;51.210;7.656;2023-06-24T04:13:21;10.05;;;6.18;;
44925;SDS011;30662;51.210;7.656;2023-06-24T04:15:47;11.98;;;6.65;;
44925;SDS011;30662;51.210;7.656;2023-06-24T04:18:13;6.43;;;5.72;;
44925;SDS011;30662;51.210;7.656;2023-06-24T04:20:39;8.15;;;5.70;;
44925;SDS011;30662;51.210;7.656;2023-06-24T04:23:05;6.68;;;5.32;;
44925;SDS011;30662;51.210;7.656;2023-06-24T04:25:34;9.18;;;5.95;;
44925;SDS011;30662;51.210;7.656;2023-06-24T04:28:01;6.32;;;5.72;;
44925;SDS011;30662;51.210;7.656;2023-06-24T04:30:28;6.85;;;5.97;;
44925;SDS011;30662;51.210;7.656;2023-06-24T04:32:54;6.72;;;5.50;;
44925;SDS011;30662;51.210;7.656;2023-06-24T04:35:19;7.13;;;5.95;;
44925;SDS011;30662;51.210;7.656;2023-06-24T04:37:45;12.55;;;5.90;;
44925;SDS011;30662;51.210;7.656;2023-06-24T04:40:11;7.28;;;5.90;;
44925;SDS011;30662;51.210;7.656;2023-06-24T04:42:38;10.35;;;5.97;;
44925;SDS011;30662;51.210;7.656;2023-06-24T04:45:04;8.88;;;5.85;;
44925;SDS011;30662;51.210;7.656;2023-06-24T04:47:31;7.85;;;5.57;;
44925;SDS011;30662;51.210;7.656;2023-06-24T04:49:57;7.13;;;5.75;;
44925;SDS011;30662;51.210;7.656;2023-06-24T04:52:23;8.20;;;5.93;;
44925;SDS011;30662;51.210;7.656;2023-06-24T04:54:49;7.93;;;5.95;;
44925;SDS011;30662;51.210;7.656;2023-06-24T04:57:26;5.75;;;5.18;;
44925;SDS011;30662;51.210;7.656;2023-06-24T04:59:56;6.85;;;5.18;;
44925;SDS011;30662;51.210;7.656;2023-06-24T05:02:22;5.85;;;5.13;;
44925;SDS011;30662;51.210;7.656;2023-06-24T05:04:49;8.50;;;5.78;;
44925;SDS011;30662;51.210;7.656;2023-06-24T05:07:15;8.23;;;5.18;;
44925;SDS011;30662;51.210;7.656;2023-06-24T05:09:41;5.38;;;4.88;;
44925;SDS011;30662;51.210;7.656;2023-06-24T05:12:08;7.28;;;5.05;;
44925;SDS011;30662;51.210;7.656;2023-06-24T05:14:35;5.68;;;5.07;;
44925;SDS011;30662;51.210;7.656;2023-06-24T05:17:01;6.30;;;5.57;;
44925;SDS011;30662;51.210;7.656;2023-06-24T05:19:28;7.43;;;6.15;;
44925;SDS011;30662;51.210;7.656;2023-06-24T05:21:54;6.80;;;5.65;;
44925;SDS011;30662;51.210;7.656;2023-06-24T05:24:19;9.00;;;5.30;;
44925;SDS011;30662;51.210;7.656;2023-06-24T05:26:48;5.88;;;5.28;;
44925;SDS011;30662;51.210;7.656;2023-06-24T05:29:14;6.03;;;5.40;;
44925;SDS011;30662;51.210;7.656;2023-06-24T05:31:41;7.97;;;5.22;;
44925;SDS011;30662;51.210;7.656;2023-06-24T05:34:08;6.40;;;5.15;;
44925;SDS011;30662;51.210;7.656;2023-06-24T05:36:34;6.13;;;5.53;;
44925;SDS011;30662;51.210;7.656;2023-06-24T05:39:00;6.82;;;6.18;;
44925;SDS011;30662;51.210;7.656;2023-06-24T05:41:25;7.07;;;5.30;;
44925;SDS011;30662;51.210;7.656;2023-06-24T05:44:01;6.47;;;5.70;;
44925;SDS011;30662;51.210;7.656;2023-06-24T05:46:35;7.85;;;5.60;;
44925;SDS011;30662;51.210;7.656;2023-06-24T05:49:02;6.75;;;5.00;;
44925;SDS011;30662;51.210;7.656;2023-06-24T05:51:28;11.25;;;4.90;;
44925;SDS011;30662;51.210;7.656;2023-06-24T05:53:54;5.38;;;4.65;;
44925;SDS011;30662;51.210;7.656;2023-06-24T05:56:20;5.40;;;4.85;;
44925;SDS011;30662;51.210;7.656;2023-06-24T05:58:47;8.75;;;5.35;;
44925;SDS011;30662;51.210;7.656;2023-06-24T06:01:14;5.05;;;4.60;;
44925;SDS011;30662;51.210;7.656;2023-06-24T06:03:40;5.10;;;4.07;;
44925;SDS011;30662;51.210;7.656;2023-06-24T06:06:06;6.60;;;4.20;;
44925;SDS011;30662;51.210;7.656;2023-06-24T06:08:33;6.07;;;4.85;;
44925;SDS011;30662;51.210;7.656;2023-06-24T06:10:59;5.93;;;4.72;;
44925;SDS011;30662;51.210;7.656;2023-06-24T06:13:28;4.93;;;4.43;;
44925;SDS011;30662;51.210;7.656;2023-06-24T06:15:54;8.30;;;4.32;;
44925;SDS011;30662;51.210;7.656;2023-06-24T06:18:20;6.13;;;4.53;;
44925;SDS011;30662;51.210;7.656;2023-06-24T06:20:47;7.18;;;4.90;;
44925;SDS011;30662;51.210;7.656;2023-06-24T06:23:12;5.90;;;4.43;;
44925;SDS011;30662;51.210;7.656;2023-06-24T06:25:38;4.57;;;4.10;;
44925;SDS011;30662;51.210;7.656;2023-06-24T06:28:04;5.20;;;4.70;;
44925;SDS011;30662;51.210;7.656;2023-06-24T06:30:30;4.85;;;4.40;;
44925;SDS011;30662;51.210;7.656;2023-06-24T06:32:56;5.90;;;4.80;;
44925;SDS011;30662;51.210;7.656;2023-06-24T06:35:22;6.32;;;4.85;;
44925;SDS011;30662;51.210;7.656;2023-06-24T06:37:48;7.50;;;4.30;;
44925;SDS011;30662;51.210;7.656;2023-06-24T06:40:22;5.53;;;4.68;;
44925;SDS011;30662;51.210;7.656;2023-06-24T06:42:48;5.43;;;4.78;;
44925;SDS011;30662;51.210;7.656;2023-06-24T06:45:14;6.00;;;4.78;;
44925;SDS011;30662;51.210;7.656;2023-06-24T06:47:40;5.75;;;4.80;;
44925;SDS011;30662;51.210;7.656;2023-06-24T06:50:06;7.57;;;4.75;;
44925;SDS011;30662;51.210;7.656;2023-06-24T06:52:36;6.65;;;4.82;;
44925;SDS011;30662;51.210;7.656;2023-06-24T06:55:01;5.60;;;4.95;;
44925;SDS011;30662;51.210;7.656;2023-06-24T06:57:27;8.10;;;5.32;;
44925;SDS011;30662;51.210;7.656;2023-06-24T06:59:54;10.23;;;7.63;;
44925;SDS011;30662;51.210;7.656;2023-06-24T07:02:19;10.20;;;6.68;;
44925;SDS011;30662;51.210;7.656;2023-06-24T07:04:45;7.68;;;5.85;;
44925;SDS011;30662;51.210;7.656;2023-06-24T07:07:13;5.93;;;5.38;;
44925;SDS011;30662;51.210;7.656;2023-06-24T07:09:39;7.75;;;5.25;;
44925;SDS011;30662;51.210;7.656;2023-06-24T07:12:05;4.80;;;4.30;;
44925;SDS011;30662;51.210;7.656;2023-06-24T07:14:32;7.10;;;6.40;;
44925;SDS011;30662;51.210;7.656;2023-06-24T07:16:58;8.65;;;5.28;;
44925;SDS011;30662;51.210;7.656;2023-06-24T07:19:24;5.65;;;5.13;;
44925;SDS011;30662;51.210;7.656;2023-06-24T07:21:51;6.43;;;5.22;;
44925;SDS011;30662;51.210;7.656;2023-06-24T07:24:17;5.57;;;5.03;;
44925;SDS011;30662;51.210;7.656;2023-06-24T07:26:43;11.73;;;5.32;;
44925;SDS011;30662;51.210;7.656;2023-06-24T07:29:09;7.65;;;5.43;;
44925;SDS011;30662;51.210;7.656;2023-06-24T07:31:36;7.63;;;5.03;;
44925;SDS011;30662;51.210;7.656;2023-06-24T07:34:02;6.03;;;5.43;;
44925;SDS011;30662;51.210;7.656;2023-06-24T07:36:28;5.95;;;5.20;;
44925;SDS011;30662;51.210;7.656;2023-06-24T07:38:54;10.45;;;5.95;;
44925;SDS011;30662;51.210;7.656;2023-06-24T07:41:20;6.10;;;4.88;;
44925;SDS011;30662;51.210;7.656;2023-06-24T07:43:46;7.95;;;5.47;;
44925;SDS011;30662;51.210;7.656;2023-06-24T07:46:12;7.25;;;5.88;;
44925;SDS011;30662;51.210;7.656;2023-06-24T07:48:37;8.10;;;6.63;;
44925;SDS011;30662;51.210;7.656;2023-06-24T07:51:03;6.85;;;5.45;;
44925;SDS011;30662;51.210;7.656;2023-06-24T07:53:29;7.32;;;5.93;;
44925;SDS011;30662;51.210;7.656;2023-06-24T07:55:55;8.20;;;6.47;;
44925;SDS011;30662;51.210;7.656;2023-06-24T07:58:21;6.78;;;5.70;;
44925;SDS011;30662;51.210;7.656;2023-06-24T08:00:47;8.75;;;6.03;;
44925;SDS011;30662;51.210;7.656;2023-06-24T08:03:13;8.13;;;5.35;;
44925;SDS011;30662;51.210;7.656;2023-06-24T08:05:40;7.32;;;5.68;;
44925;SDS011;30662;51.210;7.656;2023-06-24T08:08:06;10.55;;;7.85;;
44925;SDS011;30662;51.210;7.656;2023-06-24T08:10:32;10.00;;;7.00;;
44925;SDS011;30662;51.210;7.656;2023-06-24T08:12:58;7.70;;;6.78;;
44925;SDS011;30662;51.210;7.656;2023-06-24T08:15:24;11.70;;;7.03;;
44925;SDS011;30662;51.210;7.656;2023-06-24T08:17:53;6.65;;;5.95;;
44925;SDS011;30662;51.210;7.656;2023-06-24T08:20:20;9.30;;;7.47;;
44925;SDS011;30662;51.210;7.656;2023-06-24T08:22:47;8.50;;;6.93;;
44925;SDS011;30662;51.210;7.656;2023-06-24T08:25:13;7.93;;;6.05;;
44925;SDS011;30662;51.210;7.656;2023-06-24T08:27:39;8.73;;;7.82;;
44925;SDS011;30662;51.210;7.656;2023-06-24T08:30:05;9.70;;;7.13;;
44925;SDS011;30662;51.210;7.656;2023-06-24T08:32:32;8.05;;;7.00;;
44925;SDS011;30662;51.210;7.656;2023-06-24T08:34:58;11.10;;;8.13;;
44925;SDS011;30662;51.210;7.656;2023-06-24T08:37:24;8.82;;;7.93;;
44925;SDS011;30662;51.210;7.656;2023-06-24T08:39:50;8.80;;;6.95;;
44925;SDS011;30662;51.210;7.656;2023-06-24T08:42:16;9.95;;;7.45;;
44925;SDS011;30662;51.210;7.656;2023-06-24T08:44:42;8.32;;;7.43;;
44925;SDS011;30662;51.210;7.656;2023-06-24T08:47:11;9.35;;;8.35;;
44925;SDS011;30662;51.210;7.656;2023-06-24T08:49:48;9.55;;;7.93;;
44925;SDS011;30662;51.210;7.656;2023-06-24T08:52:21;12.43;;;8.18;;
44925;SDS011;30662;51.210;7.656;2023-06-24T08:54:52;8.55;;;7.65;;
44925;SDS011;30662;51.210;7.656;2023-06-24T08:57:21;8.60;;;7.70;;
44925;SDS011;30662;51.210;7.656;2023-06-24T08:59:46;9.60;;;8.60;;
44925;SDS011;30662;51.210;7.656;2023-06-24T09:02:13;8.80;;;7.78;;
44925;SDS011;30662;51.210;7.656;2023-06-24T09:04:40;9.45;;;7.32;;
44925;SDS011;30662;51.210;7.656;2023-06-24T09:07:06;9.63;;;8.55;;
44925;SDS011;30662;51.210;7.656;2023-06-24T09:09:34;12.93;;;8.48;;
44925;SDS011;30662;51.210;7.656;2023-06-24T09:14:38;10.57;;;7.60;;
44925;SDS011;30662;51.210;7.656;2023-06-24T09:17:03;11.32;;;9.20;;
44925;SDS011;30662;51.210;7.656;2023-06-24T09:19:30;10.23;;;8.27;;
44925;SDS011;30662;51.210;7.656;2023-06-24T09:22:01;9.30;;;8.40;;
44925;SDS011;30662;51.210;7.656;2023-06-24T09:24:32;13.18;;;8.55;;
44925;SDS011;30662;51.210;7.656;2023-06-24T09:27:02;15.95;;;9.05;;
44925;SDS011;30662;51.210;7.656;2023-06-24T09:29:34;9.20;;;7.13;;
44925;SDS011;30662;51.210;7.656;2023-06-24T09:32:04;12.10;;;8.48;;
44925;SDS011;30662;51.210;7.656;2023-06-24T09:34:31;10.85;;;6.75;;
44925;SDS011;30662;51.210;7.656;2023-06-24T09:36:58;8.80;;;7.32;;
44925;SDS011;30662;51.210;7.656;2023-06-24T09:39:25;10.43;;;8.10;;
44925;SDS011;30662;51.210;7.656;2023-06-24T09:42:00;9.60;;;7.68;;
44925;SDS011;30662;51.210;7.656;2023-06-24T09:44:27;8.98;;;8.05;;
44925;SDS011;30662;51.210;7.656;2023-06-24T09:46:54;10.55;;;7.70;;
44925;SDS011;30662;51.210;7.656;2023-06-24T09:49:21;9.75;;;7.82;;
44925;SDS011;30662;51.210;7.656;2023-06-24T09:51:49;11.73;;;9.65;;
44925;SDS011;30662;51.210;7.656;2023-06-24T09:54:16;10.43;;;8.05;;
44925;SDS011;30662;51.210;7.656;2023-06-24T09:56:43;10.55;;;7.60;;
44925;SDS011;30662;51.210;7.656;2023-06-24T09:59:13;10.23;;;7.30;;
44925;SDS011;30662;51.210;7.656;2023-06-24T10:01:41;7.57;;;6.32;;
44925;SDS011;30662;51.210;7.656;2023-06-24T10:04:10;8.05;;;5.40;;
44925;SDS011;30662;51.210;7.656;2023-06-24T10:06:40;7.15;;;5.43;;
44925;SDS011;30662;51.210;7.656;2023-06-24T10:09:06;8.60;;;6.85;;
44925;SDS011;30662;51.210;7.656;2023-06-24T10:11:32;9.52;;;5.93;;
44925;SDS011;30662;51.210;7.656;2023-06-24T10:13:59;6.28;;;5.47;;
44925;SDS011;30662;51.210;7.656;2023-06-24T10:16:25;5.70;;;5.10;;
44925;SDS011;30662;51.210;7.656;2023-06-24T10:18:50;11.15;;;4.68;;
44925;SDS011;30662;51.210;7.656;2023-06-24T10:21:16;6.05;;;3.97;;
44925;SDS011;30662;51.210;7.656;2023-06-24T10:37:10;6.72;;;4.90;;
44925;SDS011;30662;51.210;7.656;2023-06-24T10:39:52;9.02;;;5.05;;
44925;SDS011;30662;51.210;7.656;2023-06-24T10:47:35;7.35;;;4.05;;
44925;SDS011;30662;51.210;7.656;2023-06-24T10:50:02;7.05;;;4.35;;
44925;SDS011;30662;51.210;7.656;2023-06-24T10:52:29;5.85;;;3.42;;
44925;SDS011;30662;51.210;7.656;2023-06-24T10:54:58;5.43;;;3.63;;
44925;SDS011;30662;51.210;7.656;2023-06-24T10:57:25;5.50;;;3.78;;
44925;SDS011;30662;51.210;7.656;2023-06-24T10:59:53;4.20;;;3.80;;
44925;SDS011;30662;51.210;7.656;2023-06-24T11:02:20;7.00;;;3.60;;
44925;SDS011;30662;51.210;7.656;2023-06-24T11:04:51;4.68;;;4.03;;
44925;SDS011;30662;51.210;7.656;2023-06-24T11:07:20;4.57;;;3.90;;
44925;SDS011;30662;51.210;7.656;2023-06-24T11:09:54;6.35;;;3.92;;
44925;SDS011;30662;51.210;7.656;2023-06-24T11:12:24;5.05;;;3.72;;
44925;SDS011;30662;51.210;7.656;2023-06-24T11:14:55;4.97;;;3.50;;
44925;SDS011;30662;51.210;7.656;2023-06-24T11:17:27;4.40;;;3.60;;
44925;SDS011;30662;51.210;7.656;2023-06-24T11:19:53;4.03;;;3.63;;
44925;SDS011;30662;51.210;7.656;2023-06-24T11:22:25;7.07;;;4.50;;
44925;SDS011;30662;51.210;7.656;2023-06-24T11:24:52;6.72;;;4.47;;
44925;SDS011;30662;51.210;7.656;2023-06-24T11:27:28;4.53;;;3.67;;
44925;SDS011;30662;51.210;7.656;2023-06-24T11:29:57;3.95;;;3.08;;
44925;SDS011;30662;51.210;7.656;2023-06-24T11:32:34;4.40;;;3.83;;
44925;SDS011;30662;51.210;7.656;2023-06-24T11:35:13;3.85;;;3.45;;
44925;SDS011;30662;51.210;7.656;2023-06-24T11:37:43;5.72;;;3.83;;
44925;SDS011;30662;51.210;7.656;2023-06-24T11:40:13;4.60;;;3.22;;
44925;SDS011;30662;51.210;7.656;2023-06-24T11:42:42;6.57;;;3.50;;
44925;SDS011;30662;51.210;7.656;2023-06-24T11:45:13;4.25;;;3.08;;
44925;SDS011;30662;51.210;7.656;2023-06-24T11:47:42;7.95;;;3.75;;
44925;SDS011;30662;51.210;7.656;2023-06-24T11:50:08;5.00;;;3.22;;
44925;SDS011;30662;51.210;7.656;2023-06-24T11:52:41;6.15;;;3.65;;
44925;SDS011;30662;51.210;7.656;2023-06-24T11:57:50;5.07;;;4.47;;
44925;SDS011;30662;51.210;7.656;2023-06-24T12:00:21;6.20;;;5.15;;
44925;SDS011;30662;51.210;7.656;2023-06-24T12:02:49;4.63;;;3.83;;
44925;SDS011;30662;51.210;7.656;2023-06-24T12:05:25;10.82;;;3.78;;
44925;SDS011;30662;51.210;7.656;2023-06-24T12:07:56;5.10;;;3.70;;
44925;SDS011;30662;51.210;7.656;2023-06-24T12:10:27;4.93;;;3.60;;
44925;SDS011;30662;51.210;7.656;2023-06-24T12:12:55;5.93;;;3.63;;
44925;SDS011;30662;51.210;7.656;2023-06-24T12:15:22;4.50;;;3.50;;
44925;SDS011;30662;51.210;7.656;2023-06-24T12:17:48;9.02;;;4.72;;
44925;SDS011;30662;51.210;7.656;2023-06-24T12:20:14;4.65;;;3.50;;
44925;SDS011;30662;51.210;7.656;2023-06-24T12:22:41;6.03;;;3.50;;
44925;SDS011;30662;51.210;7.656;2023-06-24T12:25:07;4.05;;;2.70;;
44925;SDS011;30662;51.210;7.656;2023-06-24T12:27:36;3.97;;;3.45;;
44925;SDS011;30662;51.210;7.656;2023-06-24T12:30:03;4.70;;;3.67;;
44925;SDS011;30662;51.210;7.656;2023-06-24T12:32:30;4.20;;;3.40;;
44925;SDS011;30662;51.210;7.656;2023-06-24T12:34:55;4.85;;;3.38;;
44925;SDS011;30662;51.210;7.656;2023-06-24T12:37:21;4.75;;;3.88;;
44925;SDS011;30662;51.210;7.656;2023-06-24T12:39:48;4.45;;;4.05;;
44925;SDS011;30662;51.210;7.656;2023-06-24T12:42:16;4.55;;;3.75;;
44925;SDS011;30662;51.210;7.656;2023-06-24T12:44:42;5.05;;;3.50;;
44925;SDS011;30662;51.210;7.656;2023-06-24T12:47:08;8.38;;;3.70;;
44925;SDS011;30662;51.210;7.656;2023-06-24T12:49:34;3.53;;;3.13;;
44925;SDS011;30662;51.210;7.656;2023-06-24T12:52:00;6.20;;;4.63;;
44925;SDS011;30662;51.210;7.656;2023-06-24T12:54:26;4.78;;;3.65;;
44925;SDS011;30662;51.210;7.656;2023-06-24T12:56:52;3.88;;;3.42;;
44925;SDS011;30662;51.210;7.656;2023-06-24T12:59:34;3.70;;;2.97;;
44925;SDS011;30662;51.210;7.656;2023-06-24T13:02:00;4.13;;;2.80;;
44925;SDS011;30662;51.210;7.656;2023-06-24T13:04:26;6.60;;;3.55;;
44925;SDS011;30662;51.210;7.656;2023-06-24T13:06:52;4.30;;;3.63;;
44925;SDS011;30662;51.210;7.656;2023-06-24T13:09:19;5.45;;;3.05;;
44925;SDS011;30662;51.210;7.656;2023-06-24T13:11:45;4.80;;;2.78;;
44925;SDS011;30662;51.210;7.656;2023-06-24T13:14:12;5.82;;;3.42;;
44925;SDS011;30662;51.210;7.656;2023-06-24T13:16:39;6.57;;;3.28;;
44925;SDS011;30662;51.210;7.656;2023-06-24T13:19:05;4.22;;;3.25;;
44925;SDS011;30662;51.210;7.656;2023-06-24T13:21:31;6.35;;;3.90;;
44925;SDS011;30662;51.210;7.656;2023-06-24T13:23:57;4.05;;;2.75;;
44925;SDS011;30662;51.210;7.656;2023-06-24T13:26:26;3.78;;;2.90;;
44925;SDS011;30662;51.210;7.656;2023-06-24T13:28:52;5.80;;;3.05;;
44925;SDS011;30662;51.210;7.656;2023-06-24T13:31:19;3.78;;;3.00;;
44925;SDS011;30662;51.210;7.656;2023-06-24T13:33:46;4.53;;;3.20;;
44925;SDS011;30662;51.210;7.656;2023-06-24T13:36:13;4.72;;;3.63;;
44925;SDS011;30662;51.210;7.656;2023-06-24T13:38:55;5.18;;;3.58;;
44925;SDS011;30662;51.210;7.656;2023-06-24T13:41:21;3.58;;;3.08;;
44925;SDS011;30662;51.210;7.656;2023-06-24T13:43:47;4.53;;;3.20;;
44925;SDS011;30662;51.210;7.656;2023-06-24T13:46:12;3.17;;;2.83;;
44925;SDS011;30662;51.210;7.656;2023-06-24T13:48:38;2.95;;;2.67;;
44925;SDS011;30662;51.210;7.656;2023-06-24T13:51:04;3.35;;;2.88;;
44925;SDS011;30662;51.210;7.656;2023-06-24T13:53:32;4.57;;;3.15;;
44925;SDS011;30662;51.210;7.656;2023-06-24T13:55:58;6.25;;;3.42;;
44925;SDS011;30662;51.210;7.656;2023-06-24T13:58:23;5.15;;;3.40;;
44925;SDS011;30662;51.210;7.656;2023-06-24T14:00:49;3.75;;;3.03;;
44925;SDS011;30662;51.210;7.656;2023-06-24T14:03:15;4.38;;;3.15;;
44925;SDS011;30662;51.210;7.656;2023-06-24T14:05:41;3.88;;;2.67;;
44925;SDS011;30662;51.210;7.656;2023-06-24T14:08:07;3.20;;;2.65;;
44925;SDS011;30662;51.210;7.656;2023-06-24T14:10:33;5.07;;;3.17;;
44925;SDS011;30662;51.210;7.656;2023-06-24T14:12:59;3.80;;;2.90;;
44925;SDS011;30662;51.210;7.656;2023-06-24T14:15:25;5.38;;;3.35;;
44925;SDS011;30662;51.210;7.656;2023-06-24T14:17:51;4.30;;;3.20;;
44925;SDS011;30662;51.210;7.656;2023-06-24T14:20:17;4.03;;;3.00;;
44925;SDS011;30662;51.210;7.656;2023-06-24T14:22:42;3.72;;;2.67;;
44925;SDS011;30662;51.210;7.656;2023-06-24T14:25:09;3.05;;;2.75;;
44925;SDS011;30662;51.210;7.656;2023-06-24T14:27:36;3.72;;;2.85;;
44925;SDS011;30662;51.210;7.656;2023-06-24T14:30:02;4.50;;;2.92;;
44925;SDS011;30662;51.210;7.656;2023-06-24T14:32:29;3.00;;;2.70;;
44925;SDS011;30662;51.210;7.656;2023-06-24T14:34:55;4.10;;;2.65;;
44925;SDS011;30662;51.210;7.656;2023-06-24T14:37:21;4.93;;;2.90;;
44925;SDS011;30662;51.210;7.656;2023-06-24T14:39:47;4.72;;;2.75;;
44925;SDS011;30662;51.210;7.656;2023-06-24T14:42:13;5.35;;;3.05;;
44925;SDS011;30662;51.210;7.656;2023-06-24T14:44:39;3.97;;;2.75;;
44925;SDS011;30662;51.210;7.656;2023-06-24T14:47:05;3.90;;;2.92;;
44925;SDS011;30662;51.210;7.656;2023-06-24T14:49:31;3.72;;;2.90;;
44925;SDS011;30662;51.210;7.656;2023-06-24T14:51:57;5.90;;;2.75;;
44925;SDS011;30662;51.210;7.656;2023-06-24T14:54:22;2.97;;;2.78;;
44925;SDS011;30662;51.210;7.656;2023-06-24T14:56:48;3.83;;;2.85;;
44925;SDS011;30662;51.210;7.656;2023-06-24T14:59:22;6.03;;;2.70;;
44925;SDS011;30662;51.210;7.656;2023-06-24T15:01:48;3.10;;;2.70;;
44925;SDS011;30662;51.210;7.656;2023-06-24T15:04:14;4.72;;;2.65;;
44925;SDS011;30662;51.210;7.656;2023-06-24T15:06:40;3.40;;;3.10;;
44925;SDS011;30662;51.210;7.656;2023-06-24T15:09:06;5.05;;;3.00;;
44925;SDS011;30662;51.210;7.656;2023-06-24T15:11:32;3.78;;;2.90;;
44925;SDS011;30662;51.210;7.656;2023-06-24T15:13:58;3.13;;;2.55;;
44925;SDS011;30662;51.210;7.656;2023-06-24T15:16:24;5.20;;;2.42;;
44925;SDS011;30662;51.210;7.656;2023-06-24T15:18:50;3.25;;;2.92;;